sensor_id;sensor_type;location;lat;lon;timestamp;temperature;humidity
41628;DHT22;27321;50.816;6.054;2023-07-02T00:01:10;18.10;68.90
41628;DHT22;27321;50.816;6.054;2023-07-02T00:04:12;18.10;69.30
41628;DHT22;27321;50.816;6.054;2023-07-02T00:07:17;18.10;69.30
41628;DHT22;27321;50.816;6.054;2023-07-02T00:10:17;18.10;69.10
41628;DHT22;27321;50.816;6.054;2023-07-02T00:13:18;18.20;69.10
41628;DHT22;27321;50.816;6.054;2023-07-02T00:16:19;18.20;68.40
41628;DHT22;27321;50.816;6.054;2023-07-02T00:19:20;18.20;69.00
41628;DHT22;27321;50.816;6.054;2023-07-02T00:22:21;18.20;68.80
41628;DHT22;27321;50.816;6.054;2023-07-02T00:25:22;18.10;68.50
41628;DHT22;27321;50.816;6.054;2023-07-02T00:28:23;18.10;68.90
41628;DHT22;27321;50.816;6.054;2023-07-02T00:31:25;18.10;68.90
41628;DHT22;27321;50.816;6.054;2023-07-02T00:34:26;18.10;69.20
41628;DHT22;27321;50.816;6.054;2023-07-02T00:37:27;18.10;68.70
41628;DHT22;27321;50.816;6.054;2023-07-02T00:40:28;18.10;69.00
41628;DHT22;27321;50.816;6.054;2023-07-02T00:43:29;18.00;69.00
41628;DHT22;27321;50.816;6.054;2023-07-02T00:46:30;18.00;69.20
41628;DHT22;27321;50.816;6.054;2023-07-02T00:49:31;18.00;69.00
41628;DHT22;27321;50.816;6.054;2023-07-02T00:52:33;18.00;69.20
41628;DHT22;27321;50.816;6.054;2023-07-02T00:55:34;18.00;69.10
41628;DHT22;27321;50.816;6.054;2023-07-02T00:58:40;17.90;68.90
41628;DHT22;27321;50.816;6.054;2023-07-02T01:01:49;17.90;68.90
41628;DHT22;27321;50.816;6.054;2023-07-02T01:04:50;17.90;68.70
41628;DHT22;27321;50.816;6.054;2023-07-02T01:07:52;17.90;68.90
41628;DHT22;27321;50.816;6.054;2023-07-02T01:10:53;17.80;69.10
41628;DHT22;27321;50.816;6.054;2023-07-02T01:13:59;17.80;69.10
41628;DHT22;27321;50.816;6.054;2023-07-02T01:17:03;17.80;68.90
41628;DHT22;27321;50.816;6.054;2023-07-02T01:20:07;17.80;69.00
41628;DHT22;27321;50.816;6.054;2023-07-02T01:23:10;17.80;69.10
41628;DHT22;27321;50.816;6.054;2023-07-02T01:26:11;17.80;69.10
41628;DHT22;27321;50.816;6.054;2023-07-02T01:29:14;17.70;69.10
41628;DHT22;27321;50.816;6.054;2023-07-02T01:32:19;17.80;69.50
41628;DHT22;27321;50.816;6.054;2023-07-02T01:35:21;17.70;69.20
41628;DHT22;27321;50.816;6.054;2023-07-02T01:38:22;17.60;69.30
41628;DHT22;27321;50.816;6.054;2023-07-02T01:41:23;17.60;69.40
41628;DHT22;27321;50.816;6.054;2023-07-02T01:44:23;17.60;69.50
41628;DHT22;27321;50.816;6.054;2023-07-02T01:47:24;17.60;69.50
41628;DHT22;27321;50.816;6.054;2023-07-02T01:50:25;17.60;69.20
41628;DHT22;27321;50.816;6.054;2023-07-02T01:53:26;17.60;69.10
41628;DHT22;27321;50.816;6.054;2023-07-02T01:56:27;17.60;69.20
41628;DHT22;27321;50.816;6.054;2023-07-02T01:59:28;17.60;69.60
41628;DHT22;27321;50.816;6.054;2023-07-02T02:02:29;17.60;69.40
41628;DHT22;27321;50.816;6.054;2023-07-02T02:05:31;17.60;69.70
41628;DHT22;27321;50.816;6.054;2023-07-02T02:08:31;17.70;69.20
41628;DHT22;27321;50.816;6.054;2023-07-02T02:11:39;17.60;69.30
41628;DHT22;27321;50.816;6.054;2023-07-02T02:14:41;17.60;69.60
41628;DHT22;27321;50.816;6.054;2023-07-02T02:17:42;17.60;69.70
41628;DHT22;27321;50.816;6.054;2023-07-02T02:20:43;17.60;69.70
41628;DHT22;27321;50.816;6.054;2023-07-02T02:23:44;17.60;69.70
41628;DHT22;27321;50.816;6.054;2023-07-02T02:26:45;17.60;69.60
41628;DHT22;27321;50.816;6.054;2023-07-02T02:29:46;17.50;69.50
41628;DHT22;27321;50.816;6.054;2023-07-02T02:32:47;17.60;69.80
41628;DHT22;27321;50.816;6.054;2023-07-02T02:35:50;17.60;70.00
41628;DHT22;27321;50.816;6.054;2023-07-02T02:38:50;17.50;69.90
41628;DHT22;27321;50.816;6.054;2023-07-02T02:41:52;17.50;69.80
41628;DHT22;27321;50.816;6.054;2023-07-02T02:44:58;17.50;70.00
41628;DHT22;27321;50.816;6.054;2023-07-02T02:47:59;17.40;70.20
41628;DHT22;27321;50.816;6.054;2023-07-02T02:51:00;17.50;70.20
41628;DHT22;27321;50.816;6.054;2023-07-02T02:54:01;17.50;70.10
41628;DHT22;27321;50.816;6.054;2023-07-02T02:57:02;17.50;70.20
41628;DHT22;27321;50.816;6.054;2023-07-02T03:00:03;17.50;70.30
41628;DHT22;27321;50.816;6.054;2023-07-02T03:03:05;17.50;70.10
41628;DHT22;27321;50.816;6.054;2023-07-02T03:06:07;17.50;70.10
41628;DHT22;27321;50.816;6.054;2023-07-02T03:09:08;17.50;70.00
41628;DHT22;27321;50.816;6.054;2023-07-02T03:12:09;17.50;69.70
41628;DHT22;27321;50.816;6.054;2023-07-02T03:15:10;17.50;70.20
41628;DHT22;27321;50.816;6.054;2023-07-02T03:18:11;17.60;70.00
41628;DHT22;27321;50.816;6.054;2023-07-02T03:21:12;17.60;70.10
41628;DHT22;27321;50.816;6.054;2023-07-02T03:24:13;17.50;70.20
41628;DHT22;27321;50.816;6.054;2023-07-02T03:27:14;17.50;70.30
41628;DHT22;27321;50.816;6.054;2023-07-02T03:30:15;17.60;70.20
41628;DHT22;27321;50.816;6.054;2023-07-02T03:33:16;17.50;70.60
41628;DHT22;27321;50.816;6.054;2023-07-02T03:36:17;17.50;70.70
41628;DHT22;27321;50.816;6.054;2023-07-02T03:39:18;17.50;70.80
41628;DHT22;27321;50.816;6.054;2023-07-02T03:42:19;17.60;70.60
41628;DHT22;27321;50.816;6.054;2023-07-02T03:45:20;17.60;70.30
41628;DHT22;27321;50.816;6.054;2023-07-02T03:48:20;17.60;70.50
41628;DHT22;27321;50.816;6.054;2023-07-02T03:51:21;17.60;70.70
41628;DHT22;27321;50.816;6.054;2023-07-02T03:54:22;17.50;70.60
41628;DHT22;27321;50.816;6.054;2023-07-02T03:57:23;17.60;70.80
41628;DHT22;27321;50.816;6.054;2023-07-02T04:00:24;17.50;71.00
41628;DHT22;27321;50.816;6.054;2023-07-02T04:03:25;17.50;71.20
41628;DHT22;27321;50.816;6.054;2023-07-02T04:06:27;17.50;71.30
41628;DHT22;27321;50.816;6.054;2023-07-02T04:09:27;17.50;71.10
41628;DHT22;27321;50.816;6.054;2023-07-02T04:12:28;17.50;71.40
41628;DHT22;27321;50.816;6.054;2023-07-02T04:15:30;17.60;71.20
41628;DHT22;27321;50.816;6.054;2023-07-02T04:18:34;17.60;71.30
41628;DHT22;27321;50.816;6.054;2023-07-02T04:21:34;17.60;71.50
41628;DHT22;27321;50.816;6.054;2023-07-02T04:24:35;17.60;71.50
41628;DHT22;27321;50.816;6.054;2023-07-02T04:27:36;17.60;71.50
41628;DHT22;27321;50.816;6.054;2023-07-02T04:30:37;17.60;71.50
41628;DHT22;27321;50.816;6.054;2023-07-02T04:33:38;17.60;71.60
41628;DHT22;27321;50.816;6.054;2023-07-02T04:36:40;17.60;71.70
41628;DHT22;27321;50.816;6.054;2023-07-02T04:39:40;17.60;71.50
41628;DHT22;27321;50.816;6.054;2023-07-02T04:42:42;17.60;71.50
41628;DHT22;27321;50.816;6.054;2023-07-02T04:45:58;17.60;71.80
41628;DHT22;27321;50.816;6.054;2023-07-02T04:48:59;17.60;71.80
41628;DHT22;27321;50.816;6.054;2023-07-02T04:52:00;17.70;71.90
41628;DHT22;27321;50.816;6.054;2023-07-02T04:55:02;17.70;71.90
41628;DHT22;27321;50.816;6.054;2023-07-02T04:58:03;17.70;72.10
41628;DHT22;27321;50.816;6.054;2023-07-02T05:01:04;17.70;72.20
41628;DHT22;27321;50.816;6.054;2023-07-02T05:04:06;17.80;72.20
41628;DHT22;27321;50.816;6.054;2023-07-02T05:07:07;17.70;71.90
41628;DHT22;27321;50.816;6.054;2023-07-02T05:10:08;17.60;72.40
41628;DHT22;27321;50.816;6.054;2023-07-02T05:13:09;17.60;72.80
41628;DHT22;27321;50.816;6.054;2023-07-02T05:16:10;17.70;72.60
41628;DHT22;27321;50.816;6.054;2023-07-02T05:19:11;17.70;72.60
41628;DHT22;27321;50.816;6.054;2023-07-02T05:22:12;17.70;72.60
41628;DHT22;27321;50.816;6.054;2023-07-02T05:25:13;17.80;72.70
41628;DHT22;27321;50.816;6.054;2023-07-02T05:28:13;17.90;72.60
41628;DHT22;27321;50.816;6.054;2023-07-02T05:31:14;18.00;72.50
41628;DHT22;27321;50.816;6.054;2023-07-02T05:34:15;18.00;72.00
41628;DHT22;27321;50.816;6.054;2023-07-02T05:37:16;18.00;72.20
41628;DHT22;27321;50.816;6.054;2023-07-02T05:40:17;18.10;72.10
41628;DHT22;27321;50.816;6.054;2023-07-02T05:43:18;18.10;72.20
41628;DHT22;27321;50.816;6.054;2023-07-02T05:46:19;18.10;72.00
41628;DHT22;27321;50.816;6.054;2023-07-02T05:49:20;18.10;71.90
41628;DHT22;27321;50.816;6.054;2023-07-02T05:52:21;18.20;71.70
41628;DHT22;27321;50.816;6.054;2023-07-02T05:55:23;18.20;71.70
41628;DHT22;27321;50.816;6.054;2023-07-02T05:58:24;18.20;71.70
41628;DHT22;27321;50.816;6.054;2023-07-02T06:01:25;18.30;71.90
41628;DHT22;27321;50.816;6.054;2023-07-02T06:04:25;18.40;71.20
41628;DHT22;27321;50.816;6.054;2023-07-02T06:07:27;18.40;70.90
41628;DHT22;27321;50.816;6.054;2023-07-02T06:10:28;18.40;71.20
41628;DHT22;27321;50.816;6.054;2023-07-02T06:13:29;18.40;70.60
41628;DHT22;27321;50.816;6.054;2023-07-02T06:16:30;18.50;71.00
41628;DHT22;27321;50.816;6.054;2023-07-02T06:19:30;18.50;70.60
41628;DHT22;27321;50.816;6.054;2023-07-02T06:22:31;18.50;70.30
41628;DHT22;27321;50.816;6.054;2023-07-02T06:25:32;18.50;70.80
41628;DHT22;27321;50.816;6.054;2023-07-02T06:28:33;18.60;70.40
41628;DHT22;27321;50.816;6.054;2023-07-02T06:31:34;18.60;70.90
41628;DHT22;27321;50.816;6.054;2023-07-02T06:34:35;18.70;70.00
41628;DHT22;27321;50.816;6.054;2023-07-02T06:37:36;18.80;69.40
41628;DHT22;27321;50.816;6.054;2023-07-02T06:40:38;18.70;69.50
41628;DHT22;27321;50.816;6.054;2023-07-02T06:43:38;18.80;69.20
41628;DHT22;27321;50.816;6.054;2023-07-02T06:46:39;18.90;69.40
41628;DHT22;27321;50.816;6.054;2023-07-02T06:49:40;18.90;68.40
41628;DHT22;27321;50.816;6.054;2023-07-02T06:52:41;18.90;68.50
41628;DHT22;27321;50.816;6.054;2023-07-02T06:55:42;19.00;68.90
41628;DHT22;27321;50.816;6.054;2023-07-02T06:58:43;19.00;68.50
41628;DHT22;27321;50.816;6.054;2023-07-02T07:01:44;19.10;68.50
41628;DHT22;27321;50.816;6.054;2023-07-02T07:04:45;19.00;67.90
41628;DHT22;27321;50.816;6.054;2023-07-02T07:07:46;19.10;67.60
41628;DHT22;27321;50.816;6.054;2023-07-02T07:10:47;19.10;67.70
41628;DHT22;27321;50.816;6.054;2023-07-02T07:13:48;19.10;67.40
41628;DHT22;27321;50.816;6.054;2023-07-02T07:16:49;19.20;67.70
41628;DHT22;27321;50.816;6.054;2023-07-02T07:19:50;19.30;67.20
41628;DHT22;27321;50.816;6.054;2023-07-02T07:22:51;19.30;66.70
41628;DHT22;27321;50.816;6.054;2023-07-02T07:25:52;19.30;66.10
41628;DHT22;27321;50.816;6.054;2023-07-02T07:28:53;19.20;65.60
41628;DHT22;27321;50.816;6.054;2023-07-02T07:31:58;19.20;66.20
41628;DHT22;27321;50.816;6.054;2023-07-02T07:34:59;19.30;65.50
41628;DHT22;27321;50.816;6.054;2023-07-02T07:38:00;19.30;66.60
41628;DHT22;27321;50.816;6.054;2023-07-02T07:41:00;19.30;66.20
41628;DHT22;27321;50.816;6.054;2023-07-02T07:44:01;19.40;65.50
41628;DHT22;27321;50.816;6.054;2023-07-02T07:47:02;19.40;65.00
41628;DHT22;27321;50.816;6.054;2023-07-02T07:50:04;19.50;65.00
41628;DHT22;27321;50.816;6.054;2023-07-02T07:53:12;19.60;65.20
41628;DHT22;27321;50.816;6.054;2023-07-02T07:56:13;19.70;62.50
41628;DHT22;27321;50.816;6.054;2023-07-02T07:59:14;19.70;63.80
41628;DHT22;27321;50.816;6.054;2023-07-02T08:02:15;19.80;64.10
41628;DHT22;27321;50.816;6.054;2023-07-02T08:05:16;19.80;64.80
41628;DHT22;27321;50.816;6.054;2023-07-02T08:08:17;19.90;64.70
41628;DHT22;27321;50.816;6.054;2023-07-02T08:11:18;19.90;63.50
41628;DHT22;27321;50.816;6.054;2023-07-02T08:14:19;19.90;63.20
41628;DHT22;27321;50.816;6.054;2023-07-02T08:17:20;20.00;62.90
41628;DHT22;27321;50.816;6.054;2023-07-02T08:20:20;20.00;63.40
41628;DHT22;27321;50.816;6.054;2023-07-02T08:23:21;20.00;63.90
41628;DHT22;27321;50.816;6.054;2023-07-02T08:26:22;20.00;63.10
41628;DHT22;27321;50.816;6.054;2023-07-02T08:29:23;20.00;62.90
41628;DHT22;27321;50.816;6.054;2023-07-02T08:32:24;19.80;63.50
41628;DHT22;27321;50.816;6.054;2023-07-02T08:35:25;19.90;63.30
41628;DHT22;27321;50.816;6.054;2023-07-02T08:38:26;19.80;63.60
41628;DHT22;27321;50.816;6.054;2023-07-02T08:41:28;20.00;64.60
41628;DHT22;27321;50.816;6.054;2023-07-02T08:44:30;20.10;64.20
41628;DHT22;27321;50.816;6.054;2023-07-02T08:47:31;20.10;63.90
41628;DHT22;27321;50.816;6.054;2023-07-02T08:50:32;20.10;64.20
41628;DHT22;27321;50.816;6.054;2023-07-02T08:53:33;20.10;63.50
41628;DHT22;27321;50.816;6.054;2023-07-02T08:56:34;20.20;63.00
41628;DHT22;27321;50.816;6.054;2023-07-02T08:59:38;20.10;62.70
41628;DHT22;27321;50.816;6.054;2023-07-02T09:02:39;20.20;62.40
41628;DHT22;27321;50.816;6.054;2023-07-02T09:05:51;20.30;62.40
41628;DHT22;27321;50.816;6.054;2023-07-02T09:08:53;20.30;63.00
41628;DHT22;27321;50.816;6.054;2023-07-02T09:11:54;20.40;63.40
41628;DHT22;27321;50.816;6.054;2023-07-02T09:15:05;20.40;63.00
41628;DHT22;27321;50.816;6.054;2023-07-02T09:18:16;20.40;62.70
41628;DHT22;27321;50.816;6.054;2023-07-02T09:21:21;20.40;62.60
41628;DHT22;27321;50.816;6.054;2023-07-02T09:24:23;20.50;61.20
41628;DHT22;27321;50.816;6.054;2023-07-02T09:27:41;20.50;60.00
41628;DHT22;27321;50.816;6.054;2023-07-02T09:30:56;20.60;58.10
41628;DHT22;27321;50.816;6.054;2023-07-02T09:34:03;20.70;58.70
41628;DHT22;27321;50.816;6.054;2023-07-02T09:37:05;20.70;59.10
41628;DHT22;27321;50.816;6.054;2023-07-02T09:40:07;20.80;58.80
41628;DHT22;27321;50.816;6.054;2023-07-02T09:43:10;20.90;58.20
41628;DHT22;27321;50.816;6.054;2023-07-02T09:46:11;21.00;58.10
41628;DHT22;27321;50.816;6.054;2023-07-02T09:49:14;21.10;58.20
41628;DHT22;27321;50.816;6.054;2023-07-02T09:52:18;21.10;58.50
41628;DHT22;27321;50.816;6.054;2023-07-02T09:55:21;21.10;58.90
41628;DHT22;27321;50.816;6.054;2023-07-02T09:58:22;21.10;57.50
41628;DHT22;27321;50.816;6.054;2023-07-02T10:01:23;21.10;57.90
41628;DHT22;27321;50.816;6.054;2023-07-02T10:04:24;21.00;57.10
41628;DHT22;27321;50.816;6.054;2023-07-02T10:07:30;21.00;58.70
41628;DHT22;27321;50.816;6.054;2023-07-02T10:10:33;20.90;58.40
41628;DHT22;27321;50.816;6.054;2023-07-02T10:13:34;20.90;56.40
41628;DHT22;27321;50.816;6.054;2023-07-02T10:16:47;20.70;56.70
41628;DHT22;27321;50.816;6.054;2023-07-02T10:19:53;20.60;57.70
41628;DHT22;27321;50.816;6.054;2023-07-02T10:22:55;20.70;58.70
41628;DHT22;27321;50.816;6.054;2023-07-02T10:25:56;20.90;59.20
41628;DHT22;27321;50.816;6.054;2023-07-02T10:28:58;21.00;58.10
41628;DHT22;27321;50.816;6.054;2023-07-02T10:31:59;21.00;58.00
41628;DHT22;27321;50.816;6.054;2023-07-02T10:35:14;21.00;56.90
41628;DHT22;27321;50.816;6.054;2023-07-02T10:38:23;20.90;56.60
41628;DHT22;27321;50.816;6.054;2023-07-02T10:41:29;20.90;56.40
41628;DHT22;27321;50.816;6.054;2023-07-02T10:44:30;21.00;56.70
41628;DHT22;27321;50.816;6.054;2023-07-02T10:47:31;21.10;57.40
41628;DHT22;27321;50.816;6.054;2023-07-02T10:50:32;21.20;55.80
41628;DHT22;27321;50.816;6.054;2023-07-02T10:53:33;21.20;55.70
41628;DHT22;27321;50.816;6.054;2023-07-02T10:56:34;21.20;55.70
41628;DHT22;27321;50.816;6.054;2023-07-02T10:59:36;21.10;54.60
41628;DHT22;27321;50.816;6.054;2023-07-02T11:02:40;21.10;54.10
41628;DHT22;27321;50.816;6.054;2023-07-02T11:05:41;21.10;53.10
41628;DHT22;27321;50.816;6.054;2023-07-02T11:08:42;21.10;53.30
41628;DHT22;27321;50.816;6.054;2023-07-02T11:11:59;21.20;52.00
41628;DHT22;27321;50.816;6.054;2023-07-02T11:15:12;21.30;50.70
41628;DHT22;27321;50.816;6.054;2023-07-02T11:18:16;21.40;52.30
41628;DHT22;27321;50.816;6.054;2023-07-02T11:21:17;21.50;52.30
41628;DHT22;27321;50.816;6.054;2023-07-02T11:24:33;21.60;51.90
41628;DHT22;27321;50.816;6.054;2023-07-02T11:27:35;21.60;50.10
41628;DHT22;27321;50.816;6.054;2023-07-02T11:30:45;21.70;50.70
41628;DHT22;27321;50.816;6.054;2023-07-02T11:33:46;21.60;51.30
41628;DHT22;27321;50.816;6.054;2023-07-02T11:36:48;21.60;51.30
41628;DHT22;27321;50.816;6.054;2023-07-02T11:39:50;21.70;51.50
41628;DHT22;27321;50.816;6.054;2023-07-02T11:42:51;21.80;51.40
41628;DHT22;27321;50.816;6.054;2023-07-02T11:45:52;22.00;52.10
41628;DHT22;27321;50.816;6.054;2023-07-02T11:48:53;22.00;52.10
41628;DHT22;27321;50.816;6.054;2023-07-02T11:51:53;22.00;51.20
41628;DHT22;27321;50.816;6.054;2023-07-02T11:54:54;22.00;51.90
41628;DHT22;27321;50.816;6.054;2023-07-02T11:57:55;22.10;52.00
41628;DHT22;27321;50.816;6.054;2023-07-02T12:00:56;22.20;51.70
41628;DHT22;27321;50.816;6.054;2023-07-02T12:03:57;22.20;50.60
41628;DHT22;27321;50.816;6.054;2023-07-02T12:06:59;22.30;48.80
41628;DHT22;27321;50.816;6.054;2023-07-02T12:10:01;22.30;50.00
41628;DHT22;27321;50.816;6.054;2023-07-02T12:13:02;22.30;49.50
41628;DHT22;27321;50.816;6.054;2023-07-02T12:16:03;22.10;48.50
41628;DHT22;27321;50.816;6.054;2023-07-02T12:19:04;22.00;49.20
41628;DHT22;27321;50.816;6.054;2023-07-02T12:22:06;21.80;49.70
41628;DHT22;27321;50.816;6.054;2023-07-02T12:25:07;21.80;50.40
41628;DHT22;27321;50.816;6.054;2023-07-02T12:28:08;21.80;50.00
41628;DHT22;27321;50.816;6.054;2023-07-02T12:31:09;22.00;50.80
41628;DHT22;27321;50.816;6.054;2023-07-02T12:34:11;22.10;50.10
41628;DHT22;27321;50.816;6.054;2023-07-02T12:37:11;22.20;50.80
41628;DHT22;27321;50.816;6.054;2023-07-02T12:40:18;22.30;49.50
41628;DHT22;27321;50.816;6.054;2023-07-02T12:43:20;22.40;50.00
41628;DHT22;27321;50.816;6.054;2023-07-02T12:46:21;22.40;50.20
41628;DHT22;27321;50.816;6.054;2023-07-02T12:49:22;22.40;49.20
41628;DHT22;27321;50.816;6.054;2023-07-02T12:52:22;22.20;49.70
41628;DHT22;27321;50.816;6.054;2023-07-02T12:55:23;22.20;50.10
41628;DHT22;27321;50.816;6.054;2023-07-02T12:58:24;22.10;50.50
41628;DHT22;27321;50.816;6.054;2023-07-02T13:01:25;22.20;51.20
41628;DHT22;27321;50.816;6.054;2023-07-02T13:04:26;22.30;50.90
41628;DHT22;27321;50.816;6.054;2023-07-02T13:07:27;22.50;49.30
41628;DHT22;27321;50.816;6.054;2023-07-02T13:10:31;22.50;48.70
41628;DHT22;27321;50.816;6.054;2023-07-02T13:13:34;22.60;48.70
41628;DHT22;27321;50.816;6.054;2023-07-02T13:16:36;22.70;48.40
41628;DHT22;27321;50.816;6.054;2023-07-02T13:19:37;22.80;47.40
41628;DHT22;27321;50.816;6.054;2023-07-02T13:22:38;22.90;47.40
41628;DHT22;27321;50.816;6.054;2023-07-02T13:25:39;22.90;46.80
41628;DHT22;27321;50.816;6.054;2023-07-02T13:28:40;22.90;46.80
41628;DHT22;27321;50.816;6.054;2023-07-02T13:31:41;23.00;47.60
41628;DHT22;27321;50.816;6.054;2023-07-02T13:34:42;23.10;48.20
41628;DHT22;27321;50.816;6.054;2023-07-02T13:37:43;23.00;48.50
41628;DHT22;27321;50.816;6.054;2023-07-02T13:40:44;23.00;47.70
41628;DHT22;27321;50.816;6.054;2023-07-02T13:43:45;23.00;48.20
41628;DHT22;27321;50.816;6.054;2023-07-02T13:46:47;23.00;47.50
41628;DHT22;27321;50.816;6.054;2023-07-02T13:49:49;23.00;50.00
41628;DHT22;27321;50.816;6.054;2023-07-02T13:52:50;23.00;48.10
41628;DHT22;27321;50.816;6.054;2023-07-02T13:55:51;23.00;48.00
41628;DHT22;27321;50.816;6.054;2023-07-02T14:01:56;23.10;48.80
41628;DHT22;27321;50.816;6.054;2023-07-02T14:04:57;23.20;49.20
41628;DHT22;27321;50.816;6.054;2023-07-02T14:07:58;23.20;49.50
41628;DHT22;27321;50.816;6.054;2023-07-02T14:10:59;23.30;48.60
41628;DHT22;27321;50.816;6.054;2023-07-02T14:14:00;23.40;48.90
41628;DHT22;27321;50.816;6.054;2023-07-02T14:17:01;23.30;48.50
41628;DHT22;27321;50.816;6.054;2023-07-02T14:20:03;23.20;48.20
41628;DHT22;27321;50.816;6.054;2023-07-02T14:23:06;23.20;48.80
41628;DHT22;27321;50.816;6.054;2023-07-02T14:26:07;23.30;48.00
41628;DHT22;27321;50.816;6.054;2023-07-02T14:29:08;23.20;48.30
41628;DHT22;27321;50.816;6.054;2023-07-02T14:32:09;23.10;48.40
41628;DHT22;27321;50.816;6.054;2023-07-02T14:35:10;23.00;49.40
41628;DHT22;27321;50.816;6.054;2023-07-02T14:38:11;23.00;49.60
41628;DHT22;27321;50.816;6.054;2023-07-02T14:41:12;23.00;49.50
41628;DHT22;27321;50.816;6.054;2023-07-02T14:44:13;22.90;49.30
41628;DHT22;27321;50.816;6.054;2023-07-02T14:47:14;22.80;49.20
41628;DHT22;27321;50.816;6.054;2023-07-02T14:50:15;22.60;49.50
41628;DHT22;27321;50.816;6.054;2023-07-02T14:53:17;22.70;49.70
41628;DHT22;27321;50.816;6.054;2023-07-02T14:56:19;22.70;50.70
41628;DHT22;27321;50.816;6.054;2023-07-02T14:59:20;22.80;50.40
41628;DHT22;27321;50.816;6.054;2023-07-02T15:02:21;22.80;50.00
41628;DHT22;27321;50.816;6.054;2023-07-02T15:05:22;22.80;50.20
41628;DHT22;27321;50.816;6.054;2023-07-02T15:08:22;22.80;50.90
41628;DHT22;27321;50.816;6.054;2023-07-02T15:11:23;22.80;50.20
41628;DHT22;27321;50.816;6.054;2023-07-02T15:14:24;22.90;50.80
41628;DHT22;27321;50.816;6.054;2023-07-02T15:17:25;22.90;50.90
41628;DHT22;27321;50.816;6.054;2023-07-02T15:20:26;22.90;50.80
41628;DHT22;27321;50.816;6.054;2023-07-02T15:23:28;23.00;50.70
41628;DHT22;27321;50.816;6.054;2023-07-02T15:26:29;23.10;50.70
41628;DHT22;27321;50.816;6.054;2023-07-02T15:29:30;23.10;50.80
41628;DHT22;27321;50.816;6.054;2023-07-02T15:32:31;23.10;50.00
41628;DHT22;27321;50.816;6.054;2023-07-02T15:35:32;23.00;50.50
41628;DHT22;27321;50.816;6.054;2023-07-02T15:38:33;23.10;50.60
41628;DHT22;27321;50.816;6.054;2023-07-02T15:41:34;23.30;50.60
41628;DHT22;27321;50.816;6.054;2023-07-02T15:44:37;23.30;49.50
41628;DHT22;27321;50.816;6.054;2023-07-02T15:47:38;23.20;49.80
41628;DHT22;27321;50.816;6.054;2023-07-02T15:50:39;23.10;50.30
41628;DHT22;27321;50.816;6.054;2023-07-02T15:53:41;23.30;50.70
41628;DHT22;27321;50.816;6.054;2023-07-02T15:56:42;23.30;50.20
41628;DHT22;27321;50.816;6.054;2023-07-02T15:59:43;23.30;50.90
41628;DHT22;27321;50.816;6.054;2023-07-02T16:02:44;23.40;49.40
41628;DHT22;27321;50.816;6.054;2023-07-02T16:05:45;23.60;49.60
41628;DHT22;27321;50.816;6.054;2023-07-02T16:08:46;23.70;48.20
41628;DHT22;27321;50.816;6.054;2023-07-02T16:11:47;23.70;48.70
41628;DHT22;27321;50.816;6.054;2023-07-02T16:14:48;23.70;49.10
41628;DHT22;27321;50.816;6.054;2023-07-02T16:17:49;23.70;48.50
41628;DHT22;27321;50.816;6.054;2023-07-02T16:20:58;23.80;50.00
41628;DHT22;27321;50.816;6.054;2023-07-02T16:24:00;24.00;50.00
41628;DHT22;27321;50.816;6.054;2023-07-02T16:27:06;24.20;48.50
41628;DHT22;27321;50.816;6.054;2023-07-02T16:30:10;24.20;48.40
41628;DHT22;27321;50.816;6.054;2023-07-02T16:33:11;24.10;47.60
41628;DHT22;27321;50.816;6.054;2023-07-02T16:36:12;24.00;48.30
41628;DHT22;27321;50.816;6.054;2023-07-02T16:39:16;23.80;48.70
41628;DHT22;27321;50.816;6.054;2023-07-02T16:42:18;23.80;49.60
41628;DHT22;27321;50.816;6.054;2023-07-02T16:45:19;24.00;49.50
41628;DHT22;27321;50.816;6.054;2023-07-02T16:48:21;24.10;47.90
41628;DHT22;27321;50.816;6.054;2023-07-02T16:51:21;24.10;46.70
41628;DHT22;27321;50.816;6.054;2023-07-02T16:54:23;24.00;47.10
41628;DHT22;27321;50.816;6.054;2023-07-02T16:57:24;23.80;47.30
41628;DHT22;27321;50.816;6.054;2023-07-02T17:00:25;23.60;48.10
41628;DHT22;27321;50.816;6.054;2023-07-02T17:03:26;23.30;48.50
41628;DHT22;27321;50.816;6.054;2023-07-02T17:06:27;23.10;49.20
41628;DHT22;27321;50.816;6.054;2023-07-02T17:12:33;23.20;49.80
41628;DHT22;27321;50.816;6.054;2023-07-02T17:15:34;23.40;49.60
41628;DHT22;27321;50.816;6.054;2023-07-02T17:18:35;23.50;49.40
41628;DHT22;27321;50.816;6.054;2023-07-02T17:21:36;23.50;49.30
41628;DHT22;27321;50.816;6.054;2023-07-02T17:24:39;23.60;48.70
41628;DHT22;27321;50.816;6.054;2023-07-02T17:27:42;23.60;49.10
41628;DHT22;27321;50.816;6.054;2023-07-02T17:30:43;23.50;49.20
41628;DHT22;27321;50.816;6.054;2023-07-02T17:33:44;23.40;48.80
41628;DHT22;27321;50.816;6.054;2023-07-02T17:36:47;23.20;48.70
41628;DHT22;27321;50.816;6.054;2023-07-02T17:39:52;23.10;49.40
41628;DHT22;27321;50.816;6.054;2023-07-02T17:42:53;23.10;49.60
41628;DHT22;27321;50.816;6.054;2023-07-02T17:45:55;23.10;49.80
41628;DHT22;27321;50.816;6.054;2023-07-02T17:48:56;23.10;50.20
41628;DHT22;27321;50.816;6.054;2023-07-02T17:51:57;23.10;49.80
41628;DHT22;27321;50.816;6.054;2023-07-02T17:54:58;23.00;49.80
41628;DHT22;27321;50.816;6.054;2023-07-02T17:58:01;23.10;50.00
41628;DHT22;27321;50.816;6.054;2023-07-02T18:01:02;23.10;50.10
41628;DHT22;27321;50.816;6.054;2023-07-02T18:04:03;23.10;49.80
41628;DHT22;27321;50.816;6.054;2023-07-02T18:07:10;23.10;49.60
41628;DHT22;27321;50.816;6.054;2023-07-02T18:10:15;23.00;50.10
41628;DHT22;27321;50.816;6.054;2023-07-02T18:13:16;22.90;50.30
41628;DHT22;27321;50.816;6.054;2023-07-02T18:16:17;22.90;49.70
41628;DHT22;27321;50.816;6.054;2023-07-02T18:19:19;22.70;49.70
41628;DHT22;27321;50.816;6.054;2023-07-02T18:22:25;22.70;49.20
41628;DHT22;27321;50.816;6.054;2023-07-02T18:25:26;22.50;49.50
41628;DHT22;27321;50.816;6.054;2023-07-02T18:28:28;22.50;49.50
41628;DHT22;27321;50.816;6.054;2023-07-02T18:31:30;22.40;49.90
41628;DHT22;27321;50.816;6.054;2023-07-02T18:34:32;22.40;50.40
41628;DHT22;27321;50.816;6.054;2023-07-02T18:37:36;22.30;50.40
41628;DHT22;27321;50.816;6.054;2023-07-02T18:40:37;22.40;50.40
41628;DHT22;27321;50.816;6.054;2023-07-02T18:43:38;22.50;50.90
41628;DHT22;27321;50.816;6.054;2023-07-02T18:46:41;22.50;50.10
41628;DHT22;27321;50.816;6.054;2023-07-02T18:49:41;22.50;49.20
41628;DHT22;27321;50.816;6.054;2023-07-02T18:52:43;22.30;49.70
41628;DHT22;27321;50.816;6.054;2023-07-02T18:55:58;22.20;50.00
41628;DHT22;27321;50.816;6.054;2023-07-02T18:59:01;22.10;50.40
41628;DHT22;27321;50.816;6.054;2023-07-02T19:02:03;22.10;50.60
41628;DHT22;27321;50.816;6.054;2023-07-02T19:05:06;22.00;50.70
41628;DHT22;27321;50.816;6.054;2023-07-02T19:08:07;21.90;51.00
41628;DHT22;27321;50.816;6.054;2023-07-02T19:11:09;21.90;51.00
41628;DHT22;27321;50.816;6.054;2023-07-02T19:14:10;21.70;51.20